Time;durP1;ratioP1;P1;durP2;ratioP2;P2;SDS_P1;SDS_P2;PMS_P1;PMS_P2;Temp;Humidity;BMP_temperature;BMP_pressure;BME280_temperature;BME280_humidity;BME280_pressure;Samples;Min_cycle;Max_cycle;Signal;HPM_P1;HPM_P2
2022/08/21 00:00:53;;;;;;;;;;;;;;;22.39;29.33;97308.63;4983059;28;931;-78
2022/08/21 00:03:18;;;;;;;;;;;;;;;22.58;29.03;97313.84;4983309;28;914;-78
2022/08/21 00:05:46;;;;;;;;;;;;;;;22.58;29.03;97310.22;4983763;28;1978;-78
2022/08/21 00:08:12;;;;;;;;;;;;;;;22.38;29.29;97307.00;4983337;28;832;-78
2022/08/21 00:10:38;;;;;;;;;;;;;;;22.51;29.17;97313.38;4983152;28;942;-78
2022/08/21 00:13:03;;;;;;;;;;;;;;;22.29;29.40;97307.78;4998545;28;930;-78
2022/08/21 00:15:29;;;;;;;;;;;;;;;22.42;29.38;97308.44;4983289;28;876;-78
2022/08/21 00:17:55;;;;;;;;;;;;;;;22.07;29.85;97304.97;4982927;28;913;-78
2022/08/21 00:20:20;;;;;;;;;;;;;;;22.26;29.55;97298.16;4980608;28;930;-78
2022/08/21 00:22:46;;;;;;;;;;;;;;;22.35;29.39;97306.69;4978053;28;949;-78
2022/08/21 00:25:11;;;;;;;;;;;;;;;22.51;29.05;97299.19;4977851;28;1902;-78
2022/08/21 00:27:37;;;;;;;;;;;;;;;22.58;29.22;97298.88;4977889;28;1171;-78
2022/08/21 00:30:04;;;;;;;;;;;;;;;22.41;29.16;97291.91;4978030;28;981;-78
2022/08/21 00:32:29;;;;;;;;;;;;;;;22.64;29.01;97291.38;4958219;29;958;-78
2022/08/21 00:34:55;;;;;;;;;;;;;;;22.50;29.01;97300.47;4958480;29;989;-78
2022/08/21 00:37:20;;;;;;;;;;;;;;;22.76;28.70;97293.25;4958520;29;1050;-78
2022/08/21 00:39:47;;;;;;;;;;;;;;;22.29;29.39;97287.94;4958433;29;939;-78
2022/08/21 00:42:15;;;;;;;;;;;;;;;22.45;29.43;97289.72;4958101;29;1041;-78
2022/08/21 00:44:41;;;;;;;;;;;;;;;22.24;29.68;97289.34;4958155;29;1903;-78
2022/08/21 00:47:07;;;;;;;;;;;;;;;22.25;29.50;97293.75;4958285;29;950;-78
2022/08/21 00:49:33;;;;;;;;;;;;;;;22.00;30.26;97293.94;4958182;29;962;-78
2022/08/21 00:51:59;;;;;;;;;;;;;;;22.08;29.84;97289.56;4943552;29;987;-77
2022/08/21 00:54:24;;;;;;;;;;;;;;;22.39;29.60;97291.59;4939176;29;907;-78
2022/08/21 00:56:52;;;;;;;;;;;;;;;22.41;29.38;97289.88;4938725;29;966;-78
2022/08/21 00:59:18;;;;;;;;;;;;;;;22.61;29.31;97280.94;4939062;29;1077;-77
2022/08/21 01:01:43;;;;;;;;;;;;;;;22.52;29.11;97283.75;4938617;29;951;-78
2022/08/21 01:04:08;;;;;;;;;;;;;;;22.39;29.52;97285.94;4938730;29;946;-78
2022/08/21 01:06:35;;;;;;;;;;;;;;;22.57;28.83;97285.97;4922730;29;1907;-78
2022/08/21 01:09:00;;;;;;;;;;;;;;;22.40;29.16;97287.50;4943531;28;956;-78
2022/08/21 01:11:25;;;;;;;;;;;;;;;22.32;29.14;97287.78;4976904;28;1017;-78
2022/08/21 01:13:51;;;;;;;;;;;;;;;22.03;29.69;97287.34;4976963;28;1057;-78
2022/08/21 01:16:17;;;;;;;;;;;;;;;22.18;29.33;97298.94;4976838;28;983;-78
2022/08/21 01:18:43;;;;;;;;;;;;;;;22.26;29.62;97284.00;4976741;28;954;-78
2022/08/21 01:21:12;;;;;;;;;;;;;;;22.30;29.22;97289.53;4976923;28;1012;-78
2022/08/21 01:23:39;;;;;;;;;;;;;;;22.33;29.31;97289.38;4976595;28;1283;-78
2022/08/21 01:26:04;;;;;;;;;;;;;;;22.29;29.21;97291.56;4976700;28;1910;-78
2022/08/21 01:28:31;;;;;;;;;;;;;;;22.02;29.53;97288.56;4976777;28;926;-78
2022/08/21 01:30:56;;;;;;;;;;;;;;;22.21;29.37;97293.09;4938250;29;985;-77
2022/08/21 01:33:22;;;;;;;;;;;;;;;22.32;29.31;97293.44;4938166;29;1024;-78
2022/08/21 01:35:47;;;;;;;;;;;;;;;22.41;29.14;97294.75;4904262;29;1011;-77
2022/08/21 01:38:13;;;;;;;;;;;;;;;22.53;29.03;97291.00;4900522;29;894;-78
2022/08/21 01:40:46;;;;;;;;;;;;;;;22.35;29.20;97292.53;4877030;29;1600;-78
2022/08/21 01:43:11;;;;;;;;;;;;;;;22.49;28.91;97281.88;4862812;29;1044;-78
2022/08/21 01:45:37;;;;;;;;;;;;;;;22.29;29.49;97285.91;4862664;29;1907;-77
2022/08/21 01:48:02;;;;;;;;;;;;;;;22.11;29.76;97280.16;4847219;29;1179;-78
2022/08/21 01:50:28;;;;;;;;;;;;;;;22.15;29.74;97280.81;4862742;29;922;-78
2022/08/21 01:52:53;;;;;;;;;;;;;;;22.10;29.79;97270.06;4862757;29;1002;-78
2022/08/21 01:55:19;;;;;;;;;;;;;;;22.06;29.50;97275.06;4862607;29;954;-78
2022/08/21 01:57:44;;;;;;;;;;;;;;;22.03;29.76;97270.34;4847002;29;926;-79
2022/08/21 02:00:10;;;;;;;;;;;;;;;22.25;29.09;97271.09;4862688;29;1028;-78
2022/08/21 02:02:39;;;;;;;;;;;;;;;22.19;29.27;97275.78;4892520;29;921;-78
2022/08/21 02:05:04;;;;;;;;;;;;;;;22.04;29.36;97266.25;4922728;29;1962;-78
2022/08/21 02:07:56;;;;;;;;;;;;;;;22.14;29.37;97269.94;4933482;29;946;-78
2022/08/21 02:10:22;;;;;;;;;;;;;;;22.44;29.14;97271.16;4862140;29;1103;-78
2022/08/21 02:12:49;;;;;;;;;;;;;;;22.03;29.66;97264.69;4846757;29;1023;-78
2022/08/21 02:15:14;;;;;;;;;;;;;;;22.36;29.13;97267.81;4862220;29;1089;-78
2022/08/21 02:17:47;;;;;;;;;;;;;;;22.41;29.23;97272.06;4875090;29;1039;-78
2022/08/21 02:20:17;;;;;;;;;;;;;;;22.54;29.00;97264.25;4899468;29;903;-79
2022/08/21 02:22:43;;;;;;;;;;;;;;;22.22;29.49;97274.84;4899268;29;954;-78
2022/08/21 02:25:08;;;;;;;;;;;;;;;22.38;29.45;97273.00;4899096;29;1980;-78
2022/08/21 02:27:37;;;;;;;;;;;;;;;22.48;29.18;97283.09;4899178;29;1034;-78
2022/08/21 02:30:03;;;;;;;;;;;;;;;22.41;28.91;97278.53;4899100;29;994;-78
2022/08/21 02:32:28;;;;;;;;;;;;;;;22.36;29.25;97271.44;4898937;29;920;-78
2022/08/21 02:34:54;;;;;;;;;;;;;;;22.23;29.23;97272.81;4899393;29;1027;-77
2022/08/21 02:37:19;;;;;;;;;;;;;;;22.38;29.32;97278.66;4883910;29;1045;-79
2022/08/21 02:39:44;;;;;;;;;;;;;;;22.10;29.42;97287.06;4899040;29;930;-78
2022/08/21 02:42:10;;;;;;;;;;;;;;;21.84;30.21;97275.13;4899513;29;931;-78
2022/08/21 02:44:35;;;;;;;;;;;;;;;22.05;29.72;97285.59;4899107;29;1903;-77
2022/08/21 02:47:01;;;;;;;;;;;;;;;22.07;29.85;97276.63;4934227;28;1009;-78
2022/08/21 02:49:26;;;;;;;;;;;;;;;22.17;29.44;97278.28;4978236;28;858;-78
2022/08/21 02:51:52;;;;;;;;;;;;;;;22.01;29.71;97281.34;4977557;28;930;-78
2022/08/21 02:54:17;;;;;;;;;;;;;;;22.19;29.30;97272.94;4977675;28;886;-78
2022/08/21 02:56:42;;;;;;;;;;;;;;;22.27;28.97;97279.91;4977514;28;987;-78
2022/08/21 02:59:08;;;;;;;;;;;;;;;22.45;29.09;97281.22;4977500;28;887;-78
2022/08/21 03:01:33;;;;;;;;;;;;;;;22.32;29.02;97282.13;4977724;28;944;-78
2022/08/21 03:03:59;;;;;;;;;;;;;;;22.36;29.03;97287.66;4977527;28;1056;-78
2022/08/21 03:06:24;;;;;;;;;;;;;;;22.47;28.98;97287.22;4977550;28;1911;-78
2022/08/21 03:08:50;;;;;;;;;;;;;;;22.12;29.34;97280.94;4977154;28;885;-77
2022/08/21 03:11:16;;;;;;;;;;;;;;;22.06;29.50;97289.22;4975146;28;977;-78
2022/08/21 03:13:41;;;;;;;;;;;;;;;21.97;29.69;97290.00;4977491;28;871;-78
2022/08/21 03:16:07;;;;;;;;;;;;;;;22.15;29.40;97286.47;4977194;28;979;-79
2022/08/21 03:18:33;;;;;;;;;;;;;;;22.08;29.75;97278.25;4977371;28;956;-78
2022/08/21 03:20:58;;;;;;;;;;;;;;;22.12;29.66;97283.78;4976886;28;978;-78
2022/08/21 03:23:24;;;;;;;;;;;;;;;22.43;28.96;97284.50;4977022;28;1166;-78
2022/08/21 03:25:50;;;;;;;;;;;;;;;22.17;29.60;97281.13;4977168;28;1973;-78
2022/08/21 03:28:17;;;;;;;;;;;;;;;22.30;29.35;97287.47;4977310;28;971;-79
2022/08/21 03:30:43;;;;;;;;;;;;;;;22.05;29.69;97287.66;4977634;28;944;-78
2022/08/21 03:33:09;;;;;;;;;;;;;;;21.72;29.97;97285.28;4977438;28;948;-79
2022/08/21 03:35:34;;;;;;;;;;;;;;;22.15;29.49;97282.84;4977513;28;889;-78
2022/08/21 03:38:00;;;;;;;;;;;;;;;22.19;29.54;97289.97;4976691;28;888;-78
2022/08/21 03:40:25;;;;;;;;;;;;;;;22.17;29.33;97292.44;4994208;28;1118;-78
2022/08/21 03:42:51;;;;;;;;;;;;;;;22.17;29.46;97303.00;4994572;28;960;-78
2022/08/21 03:45:16;;;;;;;;;;;;;;;22.31;29.33;97297.53;4994038;28;1967;-78
2022/08/21 03:48:08;;;;;;;;;;;;;;;22.09;29.42;97296.81;4994293;28;960;-78
2022/08/21 03:50:35;;;;;;;;;;;;;;;22.18;29.29;97298.94;4917529;29;919;-78
2022/08/21 03:53:00;;;;;;;;;;;;;;;22.39;28.96;97302.94;4917406;29;994;-78
2022/08/21 03:55:26;;;;;;;;;;;;;;;22.30;29.28;97295.19;4917517;29;930;-78
2022/08/21 03:57:51;;;;;;;;;;;;;;;22.39;29.22;97308.63;4919021;29;929;-79
2022/08/21 04:00:18;;;;;;;;;;;;;;;22.38;29.16;97307.00;4920678;29;1062;-79
2022/08/21 04:02:44;;;;;;;;;;;;;;;22.24;29.15;97292.19;4920608;29;1084;-77
2022/08/21 04:05:09;;;;;;;;;;;;;;;22.01;29.63;97306.84;4888987;29;2348;-79
2022/08/21 04:07:35;;;;;;;;;;;;;;;22.25;29.11;97299.41;4920597;29;997;-78
2022/08/21 04:10:01;;;;;;;;;;;;;;;22.32;29.22;97293.44;4920727;29;954;-78
2022/08/21 04:12:27;;;;;;;;;;;;;;;22.07;29.24;97304.97;4903143;29;970;-79
2022/08/21 04:14:52;;;;;;;;;;;;;;;21.99;29.32;97303.69;4901878;29;926;-78
2022/08/21 04:17:17;;;;;;;;;;;;;;;22.35;28.63;97303.88;4901899;29;1000;-78
2022/08/21 04:19:43;;;;;;;;;;;;;;;21.98;29.58;97299.28;4901335;29;1058;-78
2022/08/21 04:22:09;;;;;;;;;;;;;;;22.17;28.94;97292.44;4901652;29;936;-79
2022/08/21 04:24:34;;;;;;;;;;;;;;;21.87;29.61;97293.25;4901324;29;1962;-78
2022/08/21 04:26:59;;;;;;;;;;;;;;;22.47;28.82;97304.22;4929384;28;927;-78
2022/08/21 04:29:25;;;;;;;;;;;;;;;22.33;29.11;97297.88;4980286;28;869;-78
2022/08/21 04:31:51;;;;;;;;;;;;;;;22.33;28.73;97300.72;4980485;28;817;-78
2022/08/21 04:34:17;;;;;;;;;;;;;;;22.24;28.97;97302.72;4980111;28;932;-78
2022/08/21 04:36:43;;;;;;;;;;;;;;;22.00;29.23;97293.94;4979979;28;930;-78
2022/08/21 04:39:08;;;;;;;;;;;;;;;22.15;29.42;97289.31;4989879;28;1578;-79
2022/08/21 04:41:33;;;;;;;;;;;;;;;22.43;28.86;97287.34;4999051;28;1525;-78
2022/08/21 04:43:59;;;;;;;;;;;;;;;22.47;28.48;97287.22;4989520;28;1455;-78
2022/08/21 04:46:24;;;;;;;;;;;;;;;22.34;28.86;97290.19;4999020;28;1950;-78
2022/08/21 04:48:50;;;;;;;;;;;;;;;22.31;29.02;97291.88;4998647;28;1515;-78
2022/08/21 04:51:34;;;;;;;;;;;;;;;22.08;29.34;97279.03;4999022;28;1468;-78
2022/08/21 04:54:10;;;;;;;;;;;;;;;22.03;29.35;97293.00;4985283;28;2014;-78
2022/08/21 04:56:50;;;;;;;;;;;;;;;22.32;29.13;97287.78;4985035;28;1572;-78
2022/08/21 04:59:16;;;;;;;;;;;;;;;22.15;29.19;97285.69;4974235;28;1511;-77
2022/08/21 05:01:42;;;;;;;;;;;;;;;22.38;29.15;97284.34;4990041;28;1585;-78
2022/08/21 05:04:08;;;;;;;;;;;;;;;22.15;29.34;97283.63;4977136;28;974;-78
2022/08/21 05:06:35;;;;;;;;;;;;;;;22.25;29.38;97285.25;4938918;29;1910;-78
2022/08/21 05:09:01;;;;;;;;;;;;;;;22.20;29.31;97280.19;4862980;29;1097;-78
2022/08/21 05:11:27;;;;;;;;;;;;;;;22.46;29.07;97274.28;4863255;29;989;-78
2022/08/21 05:13:52;;;;;;;;;;;;;;;22.31;29.09;97274.88;4862995;29;957;-78
2022/08/21 05:16:18;;;;;;;;;;;;;;;22.37;29.03;97277.88;4863592;29;1004;-78
2022/08/21 05:18:43;;;;;;;;;;;;;;;22.34;29.55;97271.13;4844748;29;977;-78
2022/08/21 05:21:09;;;;;;;;;;;;;;;22.16;29.72;97273.88;4844694;29;975;-78
2022/08/21 05:23:35;;;;;;;;;;;;;;;22.24;29.68;97268.72;4844747;29;1253;-78
2022/08/21 05:26:00;;;;;;;;;;;;;;;22.45;29.40;97273.50;4826019;29;1982;-78
2022/08/21 05:28:26;;;;;;;;;;;;;;;22.31;29.44;97269.22;4826340;29;972;-78
2022/08/21 05:30:51;;;;;;;;;;;;;;;22.26;29.48;97269.81;4826430;29;1037;-78
2022/08/21 05:33:17;;;;;;;;;;;;;;;22.05;29.97;97267.81;4826744;29;985;-78
2022/08/21 05:35:42;;;;;;;;;;;;;;;22.08;30.01;97269.75;4826342;29;1060;-78
2022/08/21 05:38:08;;;;;;;;;;;;;;;22.21;29.78;97273.25;4821237;29;1029;-78
2022/08/21 05:40:33;;;;;;;;;;;;;;;22.19;29.90;97261.63;4866651;29;1008;-78
2022/08/21 05:42:59;;;;;;;;;;;;;;;22.24;29.87;97274.41;4895023;29;977;-78
2022/08/21 05:45:25;;;;;;;;;;;;;;;22.29;29.75;97271.72;4899910;29;1984;-78
2022/08/21 05:47:51;;;;;;;;;;;;;;;22.08;30.01;97272.56;4900318;29;950;-78
2022/08/21 05:50:16;;;;;;;;;;;;;;;22.49;29.31;97279.81;4914369;29;943;-78
2022/08/21 05:52:42;;;;;;;;;;;;;;;22.48;29.43;97272.56;4918575;29;907;-77
2022/08/21 05:55:07;;;;;;;;;;;;;;;22.58;29.43;97276.19;4919007;29;1001;-78
2022/08/21 05:57:33;;;;;;;;;;;;;;;22.50;29.53;97272.09;4946502;29;1017;-78
2022/08/21 05:59:58;;;;;;;;;;;;;;;22.00;29.97;97266.38;4956829;29;924;-78
2022/08/21 06:02:24;;;;;;;;;;;;;;;22.24;29.77;97269.50;4957020;29;985;-77
2022/08/21 06:04:49;;;;;;;;;;;;;;;22.49;29.38;97268.50;4956810;29;1907;-78
2022/08/21 06:07:15;;;;;;;;;;;;;;;22.28;29.74;97275.03;4899452;29;957;-78
2022/08/21 06:09:40;;;;;;;;;;;;;;;22.31;29.73;97268.41;4911393;29;944;-78
2022/08/21 06:12:09;;;;;;;;;;;;;;;22.36;29.58;97265.75;4937209;29;1001;-78
2022/08/21 06:14:35;;;;;;;;;;;;;;;22.31;29.91;97274.88;4937736;29;1013;-78
2022/08/21 06:17:02;;;;;;;;;;;;;;;22.44;29.69;97276.81;4937768;29;899;-78
2022/08/21 06:19:27;;;;;;;;;;;;;;;22.24;29.99;97257.38;4937560;29;1006;-78
2022/08/21 06:21:53;;;;;;;;;;;;;;;22.53;29.47;97269.09;4879835;29;1013;-78
2022/08/21 06:24:18;;;;;;;;;;;;;;;22.64;28.99;97274.34;4880846;29;1201;-78
2022/08/21 06:26:44;;;;;;;;;;;;;;;22.54;29.33;97278.41;4880920;29;1915;-78
2022/08/21 06:29:12;;;;;;;;;;;;;;;22.53;29.56;97279.66;4880480;29;989;-78
2022/08/21 06:31:38;;;;;;;;;;;;;;;22.23;30.02;97278.50;4880672;29;982;-78
2022/08/21 06:34:04;;;;;;;;;;;;;;;22.54;29.27;97286.94;4880819;29;995;-78
2022/08/21 06:36:29;;;;;;;;;;;;;;;22.40;29.39;97281.84;4880413;29;1022;-78
2022/08/21 06:38:55;;;;;;;;;;;;;;;22.40;29.58;97287.50;4880366;29;939;-78
2022/08/21 06:41:21;;;;;;;;;;;;;;;22.42;29.59;97279.31;4880138;29;930;-78
2022/08/21 06:43:46;;;;;;;;;;;;;;;22.41;29.62;97283.41;4883255;29;1096;-78
2022/08/21 06:46:12;;;;;;;;;;;;;;;22.57;29.10;97285.97;4898858;29;1914;-78
2022/08/21 06:48:38;;;;;;;;;;;;;;;22.31;30.00;97274.09;4899007;29;1019;-78
2022/08/21 06:51:03;;;;;;;;;;;;;;;22.43;29.45;97286.56;4899136;29;989;-78
2022/08/21 06:53:29;;;;;;;;;;;;;;;22.32;29.66;97287.78;4927601;29;946;-79
2022/08/21 06:55:54;;;;;;;;;;;;;;;22.32;29.65;97284.94;4936795;29;1021;-78
2022/08/21 06:58:20;;;;;;;;;;;;;;;22.25;29.98;97288.09;4937298;29;871;-78
2022/08/21 07:00:46;;;;;;;;;;;;;;;22.12;30.02;97283.78;4982263;28;925;-78
2022/08/21 07:03:22;;;;;;;;;;;;;;;22.28;29.90;97289.22;4997011;28;871;-78
2022/08/21 07:05:47;;;;;;;;;;;;;;;22.43;29.77;97292.22;4955597;29;1978;-77
2022/08/21 07:08:13;;;;;;;;;;;;;;;22.42;29.74;97284.97;4956152;29;964;-78
2022/08/21 07:10:38;;;;;;;;;;;;;;;22.58;29.39;97291.16;4956031;29;936;-78
2022/08/21 07:13:04;;;;;;;;;;;;;;;22.35;29.65;97292.53;4955716;29;1022;-77
2022/08/21 07:15:29;;;;;;;;;;;;;;;22.40;29.71;97276.97;4956125;29;964;-78
2022/08/21 07:17:54;;;;;;;;;;;;;;;22.61;29.41;97283.78;4939779;29;931;-78
2022/08/21 07:20:20;;;;;;;;;;;;;;;22.65;29.61;97287.25;4955614;29;1000;-77
2022/08/21 07:22:45;;;;;;;;;;;;;;;22.43;29.90;97278.06;4955973;29;910;-78
2022/08/21 07:25:11;;;;;;;;;;;;;;;22.48;29.65;97275.38;4955216;29;1910;-78
2022/08/21 07:27:36;;;;;;;;;;;;;;;22.59;29.37;97274.97;4939882;29;1039;-78
2022/08/21 07:30:03;;;;;;;;;;;;;;;22.68;29.22;97274.19;4957946;28;1513;-78
2022/08/21 07:32:29;;;;;;;;;;;;;;;22.43;29.87;97278.06;4945590;29;1691;-78
2022/08/21 07:34:54;;;;;;;;;;;;;;;22.52;29.73;97278.88;4953753;29;1578;-78
2022/08/21 07:37:20;;;;;;;;;;;;;;;22.56;29.42;97261.72;4938960;29;1604;-77
2022/08/21 07:39:48;;;;;;;;;;;;;;;22.40;29.91;97265.63;4952901;29;1479;-78
2022/08/21 07:42:14;;;;;;;;;;;;;;;22.38;30.00;97267.34;4937324;29;1497;-79
2022/08/21 07:44:39;;;;;;;;;;;;;;;22.18;30.27;97262.88;4930183;28;1987;-78
2022/08/21 07:47:05;;;;;;;;;;;;;;;22.41;29.83;97260.75;4928738;29;1537;-78
2022/08/21 07:49:30;;;;;;;;;;;;;;;22.24;30.28;97251.72;4934104;29;1544;-79
2022/08/21 07:51:56;;;;;;;;;;;;;;;22.61;29.85;97261.09;4930437;29;1552;-78
2022/08/21 07:54:21;;;;;;;;;;;;;;;22.66;29.73;97251.19;4905094;29;1075;-79
2022/08/21 07:56:47;;;;;;;;;;;;;;;22.41;30.11;97250.19;4920708;29;964;-78
2022/08/21 07:59:12;;;;;;;;;;;;;;;22.52;30.01;97261.06;4920987;29;906;-79
2022/08/21 08:01:38;;;;;;;;;;;;;;;22.43;30.07;97263.88;4921208;29;899;-78
2022/08/21 08:04:03;;;;;;;;;;;;;;;22.68;29.53;97249.44;4901708;29;1038;-79
2022/08/21 08:06:31;;;;;;;;;;;;;;;22.57;29.80;97257.63;4883010;29;1911;-78
2022/08/21 08:08:57;;;;;;;;;;;;;;;22.51;29.97;97254.63;4870919;29;1045;-78
2022/08/21 08:11:22;;;;;;;;;;;;;;;22.41;30.13;97261.53;4882928;29;972;-79
2022/08/21 08:13:49;;;;;;;;;;;;;;;22.60;29.82;97256.69;4883327;29;899;-78
2022/08/21 08:16:14;;;;;;;;;;;;;;;22.56;29.95;97250.38;4882961;29;954;-78
2022/08/21 08:18:41;;;;;;;;;;;;;;;22.48;29.76;97249.09;4884700;29;941;-78
2022/08/21 08:21:06;;;;;;;;;;;;;;;22.60;29.69;97251.03;4901734;29;988;-78
2022/08/21 08:23:32;;;;;;;;;;;;;;;22.44;30.16;97246.44;4901606;29;1298;-78
2022/08/21 08:25:58;;;;;;;;;;;;;;;22.44;30.22;97242.81;4885788;29;1903;-78
2022/08/21 08:28:23;;;;;;;;;;;;;;;22.55;29.83;97245.97;4901487;29;949;-78
2022/08/21 08:30:49;;;;;;;;;;;;;;;22.61;29.70;97241.25;4901413;29;994;-78
2022/08/21 08:33:15;;;;;;;;;;;;;;;22.44;30.08;97254.16;4901582;29;936;-78
2022/08/21 08:35:42;;;;;;;;;;;;;;;22.53;29.94;97245.63;4930277;29;1023;-77
2022/08/21 08:38:07;;;;;;;;;;;;;;;22.42;29.98;97242.47;4939039;29;913;-78
2022/08/21 08:40:36;;;;;;;;;;;;;;;22.39;29.83;97240.59;4939091;29;953;-78
2022/08/21 08:43:02;;;;;;;;;;;;;;;22.54;29.82;97236.69;4900620;29;1764;-78
2022/08/21 08:45:36;;;;;;;;;;;;;;;22.36;30.16;97234.59;4862779;29;1986;-78
2022/08/21 08:48:03;;;;;;;;;;;;;;;22.21;30.15;97242.09;4863520;29;1594;-78
2022/08/21 08:50:33;;;;;;;;;;;;;;;22.60;29.82;97243.31;4881957;29;939;-78
2022/08/21 08:53:04;;;;;;;;;;;;;;;22.68;29.81;97232.44;4882423;29;987;-78
2022/08/21 08:55:32;;;;;;;;;;;;;;;22.69;29.68;97230.38;4872215;29;1536;-78
2022/08/21 08:57:57;;;;;;;;;;;;;;;22.46;29.77;97218.38;4882029;29;1036;-78
2022/08/21 09:00:23;;;;;;;;;;;;;;;22.43;30.16;97227.03;4882187;29;939;-78
2022/08/21 09:02:50;;;;;;;;;;;;;;;22.47;30.22;97222.00;4881937;29;1014;-78
2022/08/21 09:05:36;;;;;;;;;;;;;;;22.63;29.71;97224.53;4873190;29;1980;-78
2022/08/21 09:08:01;;;;;;;;;;;;;;;22.60;29.79;97217.00;4900614;29;1020;-78
2022/08/21 09:10:27;;;;;;;;;;;;;;;22.43;29.97;97207.19;4919165;29;1743;-79
2022/08/21 09:12:56;;;;;;;;;;;;;;;22.58;29.86;97202.47;4919506;29;955;-78
2022/08/21 09:15:29;;;;;;;;;;;;;;;22.79;29.74;97200.75;4881501;29;982;-78
2022/08/21 09:17:55;;;;;;;;;;;;;;;22.54;29.84;97210.38;4882053;29;984;-78
2022/08/21 09:20:29;;;;;;;;;;;;;;;22.52;30.28;97204.38;4880562;29;995;-78
2022/08/21 09:23:04;;;;;;;;;;;;;;;22.48;30.05;97200.91;4882181;29;1176;-78
2022/08/21 09:25:33;;;;;;;;;;;;;;;22.77;29.85;97187.06;4900136;29;1899;-78
2022/08/21 09:27:58;;;;;;;;;;;;;;;22.78;29.58;97194.31;4884756;29;983;-78
2022/08/21 09:30:26;;;;;;;;;;;;;;;22.58;30.35;97193.97;4900542;29;1062;-79
2022/08/21 09:32:51;;;;;;;;;;;;;;;22.69;30.11;97191.50;4881488;29;1306;-78
2022/08/21 09:35:19;;;;;;;;;;;;;;;22.47;30.54;97180.28;4883599;29;927;-78
2022/08/21 09:37:47;;;;;;;;;;;;;;;22.53;30.34;97183.25;4900039;29;976;-78
2022/08/21 09:40:26;;;;;;;;;;;;;;;22.74;29.80;97185.19;4900138;29;1016;-78
2022/08/21 09:43:03;;;;;;;;;;;;;;;22.69;30.02;97180.16;4881467;29;967;-78
2022/08/21 09:45:29;;;;;;;;;;;;;;;22.53;30.21;97183.25;4886552;29;1977;-78
2022/08/21 09:47:55;;;;;;;;;;;;;;;22.60;30.34;97178.09;4862333;29;1028;-78
2022/08/21 09:50:22;;;;;;;;;;;;;;;22.56;30.35;97183.13;4881354;29;905;-78
2022/08/21 09:52:52;;;;;;;;;;;;;;;22.73;29.80;97177.91;4880947;29;971;-78
2022/08/21 09:58:20;;;;;;;;;;;;;;;22.44;30.38;97174.78;4843915;29;962;-77
2022/08/21 10:00:45;;;;;;;;;;;;;;;22.57;30.30;97164.06;4859214;29;1009;-78
2022/08/21 10:03:12;;;;;;;;;;;;;;;22.68;30.04;97172.88;4852257;29;907;-79
2022/08/21 10:05:38;;;;;;;;;;;;;;;22.88;29.97;97164.72;4881308;29;1988;-78
2022/08/21 10:08:04;;;;;;;;;;;;;;;22.75;30.10;97161.25;4881395;29;933;-78
2022/08/21 10:10:30;;;;;;;;;;;;;;;22.77;30.21;97170.03;4881227;29;890;-78
2022/08/21 10:13:04;;;;;;;;;;;;;;;22.63;30.14;97159.34;4885284;29;1046;-78
2022/08/21 10:15:30;;;;;;;;;;;;;;;22.65;30.06;97156.81;4916181;29;1939;-78
2022/08/21 10:18:13;;;;;;;;;;;;;;;22.73;29.95;97158.06;4899844;29;1012;-78
2022/08/21 10:21:05;;;;;;;;;;;;;;;22.62;30.36;97157.75;4895393;29;1037;-77
2022/08/21 10:23:49;;;;;;;;;;;;;;;22.50;30.71;97150.22;4843544;29;1225;-79
2022/08/21 10:26:30;;;;;;;;;;;;;;;22.39;31.04;97144.22;4842868;29;1981;-78
2022/08/21 10:29:01;;;;;;;;;;;;;;;22.38;31.16;97136.94;4866746;29;1831;-78
2022/08/21 10:31:45;;;;;;;;;;;;;;;22.79;30.46;97139.16;4873918;29;1540;-78
2022/08/21 10:34:17;;;;;;;;;;;;;;;22.70;30.26;97135.56;4872422;29;1637;-78
2022/08/21 10:37:02;;;;;;;;;;;;;;;22.72;30.57;97136.66;4870375;29;1534;-78
2022/08/21 10:39:30;;;;;;;;;;;;;;;22.80;30.43;97140.75;4832554;29;1500;-79
2022/08/21 10:42:03;;;;;;;;;;;;;;;22.61;30.61;97131.47;4832537;29;1604;-78
2022/08/21 10:44:39;;;;;;;;;;;;;;;22.70;30.32;97142.03;4812811;29;1505;-78
2022/08/21 10:47:07;;;;;;;;;;;;;;;22.72;30.38;97133.81;4769110;30;1609;-78
2022/08/21 10:49:39;;;;;;;;;;;;;;;22.61;30.87;97144.84;4778548;30;1523;-78
2022/08/21 10:52:23;;;;;;;;;;;;;;;22.65;30.46;97142.66;4773142;30;1558;-78
2022/08/21 10:54:51;;;;;;;;;;;;;;;22.55;30.72;97147.53;4778380;30;1538;-78
2022/08/21 10:57:28;;;;;;;;;;;;;;;22.68;30.66;97132.41;4751934;30;1535;-78
2022/08/21 11:00:02;;;;;;;;;;;;;;;22.91;30.23;97128.16;4751062;30;1540;-78
2022/08/21 11:02:30;;;;;;;;;;;;;;;22.69;30.65;97129.09;4783005;29;1492;-78
2022/08/21 11:05:02;;;;;;;;;;;;;;;22.72;30.32;97133.03;4776261;30;1912;-78
2022/08/21 11:07:35;;;;;;;;;;;;;;;22.70;30.72;97132.72;4775411;30;1537;-78
2022/08/21 11:10:03;;;;;;;;;;;;;;;22.62;30.71;97113.19;4704422;30;1571;-78
2022/08/21 11:12:38;;;;;;;;;;;;;;;22.67;30.74;97125.94;4700355;30;1560;-78
2022/08/21 11:15:11;;;;;;;;;;;;;;;22.72;30.58;97125.31;4711459;30;988;-78
2022/08/21 11:17:38;;;;;;;;;;;;;;;22.83;30.61;97122.78;4699984;30;1532;-78
2022/08/21 11:20:20;;;;;;;;;;;;;;;22.74;30.45;97119.16;4699996;30;1533;-78
2022/08/21 11:23:06;;;;;;;;;;;;;;;22.62;31.00;97124.53;4704325;30;1494;-78
2022/08/21 11:25:33;;;;;;;;;;;;;;;22.69;30.67;97123.44;4717153;30;1911;-78
2022/08/21 11:28:01;;;;;;;;;;;;;;;22.74;30.77;97107.81;4715886;30;1516;-79
2022/08/21 11:30:27;;;;;;;;;;;;;;;22.79;30.43;97110.78;4764724;30;1570;-78
2022/08/21 11:32:55;;;;;;;;;;;;;;;22.77;30.48;97126.72;4775038;30;1510;-78
2022/08/21 11:35:24;;;;;;;;;;;;;;;22.87;30.55;97126.22;4787920;29;1340;-78
2022/08/21 11:37:55;;;;;;;;;;;;;;;22.57;31.28;97116.66;4792325;29;939;-78
2022/08/21 11:40:32;;;;;;;;;;;;;;;22.53;30.95;97123.72;4806319;29;1040;-79
2022/08/21 11:43:16;;;;;;;;;;;;;;;22.79;30.94;97115.69;4806351;29;910;-78
2022/08/21 11:45:52;;;;;;;;;;;;;;;22.74;31.09;97108.63;4800417;29;1933;-78
2022/08/21 11:48:35;;;;;;;;;;;;;;;22.72;30.84;97111.13;4819526;29;1232;-78
2022/08/21 11:51:22;;;;;;;;;;;;;;;22.78;30.90;97102.75;4861119;29;971;-78
2022/08/21 11:53:54;;;;;;;;;;;;;;;22.81;30.76;97102.63;4861295;29;1076;-77
2022/08/21 11:56:41;;;;;;;;;;;;;;;22.77;30.84;97101.97;4861119;29;1086;-78
2022/08/21 11:59:16;;;;;;;;;;;;;;;22.88;30.60;97104.34;4879984;29;824;-78
2022/08/21 12:01:44;;;;;;;;;;;;;;;22.74;30.95;97102.94;4875996;29;1074;-78
2022/08/21 12:04:38;;;;;;;;;;;;;;;22.70;30.87;97093.81;4879578;29;1121;-79
2022/08/21 12:07:11;;;;;;;;;;;;;;;22.87;30.41;97089.38;4898289;29;1907;-79
2022/08/21 12:09:37;;;;;;;;;;;;;;;22.61;31.09;97088.94;4898112;29;982;-78
2022/08/21 12:12:41;;;;;;;;;;;;;;;22.65;31.15;97085.94;4898235;29;938;-78
2022/08/21 12:15:22;;;;;;;;;;;;;;;22.98;30.35;97077.53;4806176;29;1066;-78
2022/08/21 12:18:00;;;;;;;;;;;;;;;22.79;30.60;97075.97;4806498;29;966;-79
2022/08/21 12:20:29;;;;;;;;;;;;;;;22.74;30.62;97070.94;4794697;29;922;-79
2022/08/21 12:23:14;;;;;;;;;;;;;;;22.85;30.71;97066.38;4809342;29;1279;-78
2022/08/21 12:25:41;;;;;;;;;;;;;;;22.65;31.10;97056.81;4824070;29;1915;-78
2022/08/21 12:28:07;;;;;;;;;;;;;;;22.50;31.20;97060.28;4791068;29;1040;-78
2022/08/21 12:30:34;;;;;;;;;;;;;;;22.58;31.08;97066.41;4773361;30;953;-78
2022/08/21 12:33:03;;;;;;;;;;;;;;;22.87;30.57;97089.38;4773049;30;963;-79
2022/08/21 12:35:33;;;;;;;;;;;;;;;22.56;31.25;97085.94;4761904;30;1132;-77
2022/08/21 12:38:15;;;;;;;;;;;;;;;22.63;30.95;97085.59;4737434;30;973;-79
2022/08/21 12:41:00;;;;;;;;;;;;;;;22.79;30.57;97079.59;4737937;30;917;-78
2022/08/21 12:43:28;;;;;;;;;;;;;;;22.87;30.61;97078.00;4755329;30;1017;-78
2022/08/21 12:45:53;;;;;;;;;;;;;;;22.75;30.50;97069.69;4800195;29;1915;-78
2022/08/21 12:48:37;;;;;;;;;;;;;;;22.70;30.71;97073.19;4845565;29;997;-79
2022/08/21 12:51:15;;;;;;;;;;;;;;;23.04;30.39;97081.31;4845459;29;967;-79
2022/08/21 12:53:45;;;;;;;;;;;;;;;22.77;30.71;97079.28;4845187;29;966;-78
2022/08/21 12:56:12;;;;;;;;;;;;;;;23.00;30.36;97080.72;4845588;29;968;-79
2022/08/21 12:58:39;;;;;;;;;;;;;;;22.80;30.82;97081.19;4824317;29;906;-78
2022/08/21 13:01:06;;;;;;;;;;;;;;;22.73;30.49;97078.66;4801832;29;955;-78
2022/08/21 13:03:33;;;;;;;;;;;;;;;22.64;30.96;97090.03;4826801;29;1096;-78
2022/08/21 13:05:59;;;;;;;;;;;;;;;22.54;31.21;97088.47;4837363;29;1986;-78
2022/08/21 13:08:24;;;;;;;;;;;;;;;23.05;30.33;97076.41;4868165;29;983;-79
2022/08/21 13:10:55;;;;;;;;;;;;;;;22.82;30.43;97084.31;4888022;29;1583;-78